sensor_id;sensor_type;location;lat;lon;timestamp;P1;durP1;ratioP1;P2;durP2;ratioP2
25301;SDS011;13243;50.888;4.724;2022-11-20T00:02:23;44.10;;;19.15;;
25301;SDS011;13243;50.888;4.724;2022-11-20T00:07:25;41.92;;;18.90;;
25301;SDS011;13243;50.888;4.724;2022-11-20T00:12:27;36.88;;;18.13;;
25301;SDS011;13243;50.888;4.724;2022-11-20T00:17:29;40.40;;;19.48;;
25301;SDS011;13243;50.888;4.724;2022-11-20T00:22:31;41.70;;;20.30;;
25301;SDS011;13243;50.888;4.724;2022-11-20T00:27:33;34.65;;;18.45;;
25301;SDS011;13243;50.888;4.724;2022-11-20T00:32:34;40.97;;;19.63;;
25301;SDS011;13243;50.888;4.724;2022-11-20T00:37:36;41.35;;;19.38;;
25301;SDS011;13243;50.888;4.724;2022-11-20T00:42:38;42.28;;;20.85;;
25301;SDS011;13243;50.888;4.724;2022-11-20T00:47:40;39.03;;;19.70;;
25301;SDS011;13243;50.888;4.724;2022-11-20T00:52:42;37.97;;;19.55;;
25301;SDS011;13243;50.888;4.724;2022-11-20T00:57:43;47.45;;;20.98;;
25301;SDS011;13243;50.888;4.724;2022-11-20T01:02:45;40.38;;;19.88;;
25301;SDS011;13243;50.888;4.724;2022-11-20T01:07:47;36.63;;;19.38;;
25301;SDS011;13243;50.888;4.724;2022-11-20T01:12:49;40.25;;;19.25;;
25301;SDS011;13243;50.888;4.724;2022-11-20T01:18:11;40.35;;;19.55;;
25301;SDS011;13243;50.888;4.724;2022-11-20T01:23:12;42.22;;;20.30;;
25301;SDS011;13243;50.888;4.724;2022-11-20T01:28:14;37.80;;;18.15;;
25301;SDS011;13243;50.888;4.724;2022-11-20T01:33:16;41.15;;;19.55;;
25301;SDS011;13243;50.888;4.724;2022-11-20T01:38:18;40.80;;;19.83;;
25301;SDS011;13243;50.888;4.724;2022-11-20T01:43:21;41.47;;;20.40;;
25301;SDS011;13243;50.888;4.724;2022-11-20T01:48:25;38.00;;;19.88;;
25301;SDS011;13243;50.888;4.724;2022-11-20T01:53:34;43.72;;;19.73;;
25301;SDS011;13243;50.888;4.724;2022-11-20T01:58:38;39.83;;;21.02;;
25301;SDS011;13243;50.888;4.724;2022-11-20T02:03:45;45.30;;;21.33;;
25301;SDS011;13243;50.888;4.724;2022-11-20T02:08:48;39.30;;;20.30;;
25301;SDS011;13243;50.888;4.724;2022-11-20T02:13:51;41.90;;;20.77;;
25301;SDS011;13243;50.888;4.724;2022-11-20T02:18:54;42.25;;;20.45;;
25301;SDS011;13243;50.888;4.724;2022-11-20T02:29:06;50.78;;;21.67;;
25301;SDS011;13243;50.888;4.724;2022-11-20T02:34:08;49.85;;;21.08;;
25301;SDS011;13243;50.888;4.724;2022-11-20T02:39:11;49.00;;;22.02;;
25301;SDS011;13243;50.888;4.724;2022-11-20T02:44:14;46.53;;;20.67;;
25301;SDS011;13243;50.888;4.724;2022-11-20T02:49:16;50.83;;;22.52;;
25301;SDS011;13243;50.888;4.724;2022-11-20T02:54:18;46.83;;;21.27;;
25301;SDS011;13243;50.888;4.724;2022-11-20T02:59:20;50.80;;;22.10;;
25301;SDS011;13243;50.888;4.724;2022-11-20T03:04:22;54.65;;;23.58;;
25301;SDS011;13243;50.888;4.724;2022-11-20T03:09:24;52.53;;;23.05;;
25301;SDS011;13243;50.888;4.724;2022-11-20T03:14:26;48.92;;;23.88;;
25301;SDS011;13243;50.888;4.724;2022-11-20T03:19:28;47.13;;;21.58;;
25301;SDS011;13243;50.888;4.724;2022-11-20T03:24:30;55.88;;;22.90;;
25301;SDS011;13243;50.888;4.724;2022-11-20T03:29:31;51.67;;;24.42;;
25301;SDS011;13243;50.888;4.724;2022-11-20T03:34:33;57.78;;;25.33;;
25301;SDS011;13243;50.888;4.724;2022-11-20T03:39:35;63.17;;;25.58;;
25301;SDS011;13243;50.888;4.724;2022-11-20T03:44:37;60.13;;;23.67;;
25301;SDS011;13243;50.888;4.724;2022-11-20T03:49:39;54.08;;;22.88;;
25301;SDS011;13243;50.888;4.724;2022-11-20T03:54:40;64.65;;;25.15;;
25301;SDS011;13243;50.888;4.724;2022-11-20T03:59:42;67.90;;;26.42;;
25301;SDS011;13243;50.888;4.724;2022-11-20T04:04:44;59.58;;;24.63;;
25301;SDS011;13243;50.888;4.724;2022-11-20T04:09:45;54.42;;;23.58;;
25301;SDS011;13243;50.888;4.724;2022-11-20T04:14:47;58.85;;;23.63;;
25301;SDS011;13243;50.888;4.724;2022-11-20T04:19:49;55.85;;;23.30;;
25301;SDS011;13243;50.888;4.724;2022-11-20T04:24:51;53.08;;;24.40;;
25301;SDS011;13243;50.888;4.724;2022-11-20T04:29:52;55.72;;;22.85;;
25301;SDS011;13243;50.888;4.724;2022-11-20T04:34:54;50.22;;;23.08;;
25301;SDS011;13243;50.888;4.724;2022-11-20T04:39:56;54.97;;;24.63;;
25301;SDS011;13243;50.888;4.724;2022-11-20T04:44:58;60.78;;;24.33;;
25301;SDS011;13243;50.888;4.724;2022-11-20T04:50:00;54.03;;;23.42;;
25301;SDS011;13243;50.888;4.724;2022-11-20T04:55:01;51.67;;;21.48;;
25301;SDS011;13243;50.888;4.724;2022-11-20T05:00:04;53.65;;;22.02;;
25301;SDS011;13243;50.888;4.724;2022-11-20T05:05:06;50.28;;;22.23;;
25301;SDS011;13243;50.888;4.724;2022-11-20T05:10:09;56.30;;;22.33;;
25301;SDS011;13243;50.888;4.724;2022-11-20T05:15:11;53.65;;;23.50;;
25301;SDS011;13243;50.888;4.724;2022-11-20T05:20:13;52.35;;;23.17;;
25301;SDS011;13243;50.888;4.724;2022-11-20T05:25:14;47.60;;;21.90;;
25301;SDS011;13243;50.888;4.724;2022-11-20T05:30:16;54.63;;;23.02;;
25301;SDS011;13243;50.888;4.724;2022-11-20T05:35:18;57.55;;;24.08;;
25301;SDS011;13243;50.888;4.724;2022-11-20T05:40:20;57.58;;;24.05;;
25301;SDS011;13243;50.888;4.724;2022-11-20T05:45:22;63.88;;;25.23;;
25301;SDS011;13243;50.888;4.724;2022-11-20T05:50:24;55.22;;;24.48;;
25301;SDS011;13243;50.888;4.724;2022-11-20T05:55:26;64.20;;;26.15;;
25301;SDS011;13243;50.888;4.724;2022-11-20T06:00:28;57.22;;;24.15;;
25301;SDS011;13243;50.888;4.724;2022-11-20T06:05:30;57.00;;;25.10;;
25301;SDS011;13243;50.888;4.724;2022-11-20T06:10:32;63.05;;;24.63;;
25301;SDS011;13243;50.888;4.724;2022-11-20T06:15:33;50.78;;;22.15;;
25301;SDS011;13243;50.888;4.724;2022-11-20T06:20:35;51.10;;;21.17;;
25301;SDS011;13243;50.888;4.724;2022-11-20T06:25:42;51.92;;;20.67;;
25301;SDS011;13243;50.888;4.724;2022-11-20T06:30:44;50.15;;;19.25;;
25301;SDS011;13243;50.888;4.724;2022-11-20T06:35:47;53.88;;;19.58;;
25301;SDS011;13243;50.888;4.724;2022-11-20T06:40:49;52.78;;;20.45;;
25301;SDS011;13243;50.888;4.724;2022-11-20T06:45:54;53.45;;;20.17;;
25301;SDS011;13243;50.888;4.724;2022-11-20T06:50:57;58.50;;;21.67;;
25301;SDS011;13243;50.888;4.724;2022-11-20T06:55:59;61.83;;;22.02;;
25301;SDS011;13243;50.888;4.724;2022-11-20T07:01:02;61.83;;;22.02;;
25301;SDS011;13243;50.888;4.724;2022-11-20T07:06:06;65.80;;;22.30;;
25301;SDS011;13243;50.888;4.724;2022-11-20T07:11:11;79.95;;;23.67;;
25301;SDS011;13243;50.888;4.724;2022-11-20T07:16:13;65.35;;;22.30;;
25301;SDS011;13243;50.888;4.724;2022-11-20T07:21:15;78.78;;;22.65;;
25301;SDS011;13243;50.888;4.724;2022-11-20T07:26:17;77.15;;;23.13;;
25301;SDS011;13243;50.888;4.724;2022-11-20T07:31:18;63.00;;;21.27;;
25301;SDS011;13243;50.888;4.724;2022-11-20T07:36:20;82.80;;;25.63;;
25301;SDS011;13243;50.888;4.724;2022-11-20T07:41:22;71.72;;;23.48;;
25301;SDS011;13243;50.888;4.724;2022-11-20T07:46:24;83.88;;;24.65;;
25301;SDS011;13243;50.888;4.724;2022-11-20T07:51:26;78.43;;;23.70;;
25301;SDS011;13243;50.888;4.724;2022-11-20T07:56:28;73.43;;;23.00;;
25301;SDS011;13243;50.888;4.724;2022-11-20T08:01:30;78.50;;;25.10;;
25301;SDS011;13243;50.888;4.724;2022-11-20T08:06:32;83.07;;;25.42;;
25301;SDS011;13243;50.888;4.724;2022-11-20T08:11:34;80.60;;;23.38;;
25301;SDS011;13243;50.888;4.724;2022-11-20T08:16:54;70.47;;;21.77;;
25301;SDS011;13243;50.888;4.724;2022-11-20T08:21:56;82.18;;;25.17;;
25301;SDS011;13243;50.888;4.724;2022-11-20T08:26:58;72.07;;;22.30;;
25301;SDS011;13243;50.888;4.724;2022-11-20T08:32:00;82.10;;;24.02;;
25301;SDS011;13243;50.888;4.724;2022-11-20T08:37:02;84.90;;;24.52;;
25301;SDS011;13243;50.888;4.724;2022-11-20T08:42:07;79.35;;;24.55;;
25301;SDS011;13243;50.888;4.724;2022-11-20T08:47:09;82.68;;;24.40;;
25301;SDS011;13243;50.888;4.724;2022-11-20T08:52:11;87.75;;;24.75;;
25301;SDS011;13243;50.888;4.724;2022-11-20T08:57:13;67.75;;;21.85;;
25301;SDS011;13243;50.888;4.724;2022-11-20T09:02:15;81.50;;;23.88;;
25301;SDS011;13243;50.888;4.724;2022-11-20T09:07:16;81.30;;;23.50;;
25301;SDS011;13243;50.888;4.724;2022-11-20T09:12:18;91.93;;;23.52;;
25301;SDS011;13243;50.888;4.724;2022-11-20T09:17:20;75.45;;;22.15;;
25301;SDS011;13243;50.888;4.724;2022-11-20T09:22:22;77.97;;;23.02;;
25301;SDS011;13243;50.888;4.724;2022-11-20T09:27:23;65.15;;;21.33;;
25301;SDS011;13243;50.888;4.724;2022-11-20T09:32:25;83.13;;;23.05;;
25301;SDS011;13243;50.888;4.724;2022-11-20T09:37:27;84.70;;;23.33;;
25301;SDS011;13243;50.888;4.724;2022-11-20T09:42:44;77.47;;;23.25;;
25301;SDS011;13243;50.888;4.724;2022-11-20T09:58:45;73.50;;;23.92;;
25301;SDS011;13243;50.888;4.724;2022-11-20T10:09:18;57.38;;;19.70;;
25301;SDS011;13243;50.888;4.724;2022-11-20T10:14:41;61.58;;;20.23;;
25301;SDS011;13243;50.888;4.724;2022-11-20T10:26:00;60.78;;;18.08;;
25301;SDS011;13243;50.888;4.724;2022-11-20T10:30:57;50.97;;;16.92;;
25301;SDS011;13243;50.888;4.724;2022-11-20T10:36:08;37.20;;;13.95;;
25301;SDS011;13243;50.888;4.724;2022-11-20T10:41:37;52.85;;;18.70;;
25301;SDS011;13243;50.888;4.724;2022-11-20T10:46:45;54.15;;;17.38;;
25301;SDS011;13243;50.888;4.724;2022-11-20T10:56:53;47.03;;;14.95;;
25301;SDS011;13243;50.888;4.724;2022-11-20T11:02:01;41.20;;;14.48;;
25301;SDS011;13243;50.888;4.724;2022-11-20T11:07:23;40.13;;;14.98;;
25301;SDS011;13243;50.888;4.724;2022-11-20T11:12:29;31.08;;;10.80;;
25301;SDS011;13243;50.888;4.724;2022-11-20T11:17:31;29.42;;;10.00;;
25301;SDS011;13243;50.888;4.724;2022-11-20T11:22:39;21.35;;;8.73;;
25301;SDS011;13243;50.888;4.724;2022-11-20T11:33:23;18.88;;;8.20;;
25301;SDS011;13243;50.888;4.724;2022-11-20T11:43:39;11.98;;;5.70;;
25301;SDS011;13243;50.888;4.724;2022-11-20T11:49:15;12.75;;;5.55;;
25301;SDS011;13243;50.888;4.724;2022-11-20T11:54:30;9.65;;;4.47;;
25301;SDS011;13243;50.888;4.724;2022-11-20T12:05:15;8.55;;;3.72;;
25301;SDS011;13243;50.888;4.724;2022-11-20T12:16:12;8.25;;;2.90;;
25301;SDS011;13243;50.888;4.724;2022-11-20T12:42:46;5.22;;;2.88;;
25301;SDS011;13243;50.888;4.724;2022-11-20T12:59:12;7.68;;;2.47;;
25301;SDS011;13243;50.888;4.724;2022-11-20T13:09:45;5.85;;;2.88;;
25301;SDS011;13243;50.888;4.724;2022-11-20T13:15:05;6.00;;;2.20;;
25301;SDS011;13243;50.888;4.724;2022-11-20T13:20:32;8.25;;;3.28;;
25301;SDS011;13243;50.888;4.724;2022-11-20T13:25:36;7.93;;;2.92;;
25301;SDS011;13243;50.888;4.724;2022-11-20T13:30:52;7.18;;;2.92;;
25301;SDS011;13243;50.888;4.724;2022-11-20T13:35:57;9.35;;;3.17;;
25301;SDS011;13243;50.888;4.724;2022-11-20T13:41:00;6.35;;;3.33;;
25301;SDS011;13243;50.888;4.724;2022-11-20T13:46:34;9.45;;;3.92;;
25301;SDS011;13243;50.888;4.724;2022-11-20T13:51:47;8.93;;;3.28;;
25301;SDS011;13243;50.888;4.724;2022-11-20T13:56:59;11.07;;;3.10;;
25301;SDS011;13243;50.888;4.724;2022-11-20T14:02:23;7.72;;;3.35;;
25301;SDS011;13243;50.888;4.724;2022-11-20T14:07:39;6.07;;;3.40;;
25301;SDS011;13243;50.888;4.724;2022-11-20T14:12:43;7.28;;;3.35;;
25301;SDS011;13243;50.888;4.724;2022-11-20T14:17:45;11.00;;;3.63;;
25301;SDS011;13243;50.888;4.724;2022-11-20T14:22:50;7.20;;;3.25;;
25301;SDS011;13243;50.888;4.724;2022-11-20T14:27:57;5.00;;;3.35;;
25301;SDS011;13243;50.888;4.724;2022-11-20T14:33:01;7.95;;;3.00;;
25301;SDS011;13243;50.888;4.724;2022-11-20T14:38:04;5.18;;;3.10;;
25301;SDS011;13243;50.888;4.724;2022-11-20T14:43:28;5.90;;;3.08;;
25301;SDS011;13243;50.888;4.724;2022-11-20T14:48:53;3.22;;;2.40;;
25301;SDS011;13243;50.888;4.724;2022-11-20T14:54:07;4.10;;;2.67;;
25301;SDS011;13243;50.888;4.724;2022-11-20T14:59:11;6.68;;;2.90;;
25301;SDS011;13243;50.888;4.724;2022-11-20T15:04:23;3.58;;;2.35;;
25301;SDS011;13243;50.888;4.724;2022-11-20T15:09:25;5.18;;;2.55;;
25301;SDS011;13243;50.888;4.724;2022-11-20T15:14:28;5.90;;;3.15;;
25301;SDS011;13243;50.888;4.724;2022-11-20T15:19:31;4.85;;;2.33;;
25301;SDS011;13243;50.888;4.724;2022-11-20T15:24:35;4.88;;;3.05;;
25301;SDS011;13243;50.888;4.724;2022-11-20T15:29:37;5.20;;;3.30;;
25301;SDS011;13243;50.888;4.724;2022-11-20T15:34:39;4.57;;;2.83;;
25301;SDS011;13243;50.888;4.724;2022-11-20T15:39:40;9.98;;;3.70;;
25301;SDS011;13243;50.888;4.724;2022-11-20T15:44:42;8.77;;;3.60;;
25301;SDS011;13243;50.888;4.724;2022-11-20T15:49:44;9.90;;;4.35;;
25301;SDS011;13243;50.888;4.724;2022-11-20T15:54:46;6.18;;;4.15;;
25301;SDS011;13243;50.888;4.724;2022-11-20T15:59:47;8.98;;;5.07;;
25301;SDS011;13243;50.888;4.724;2022-11-20T16:04:49;12.73;;;5.70;;
25301;SDS011;13243;50.888;4.724;2022-11-20T16:09:51;11.43;;;5.90;;
25301;SDS011;13243;50.888;4.724;2022-11-20T16:14:53;15.10;;;6.30;;
25301;SDS011;13243;50.888;4.724;2022-11-20T16:25:16;10.68;;;4.05;;
25301;SDS011;13243;50.888;4.724;2022-11-20T16:30:18;11.10;;;4.50;;
25301;SDS011;13243;50.888;4.724;2022-11-20T16:35:20;7.75;;;4.35;;
25301;SDS011;13243;50.888;4.724;2022-11-20T16:40:22;15.82;;;3.80;;
25301;SDS011;13243;50.888;4.724;2022-11-20T16:45:24;11.10;;;4.32;;
25301;SDS011;13243;50.888;4.724;2022-11-20T16:50:32;15.45;;;3.92;;
25301;SDS011;13243;50.888;4.724;2022-11-20T16:55:34;12.23;;;3.70;;
25301;SDS011;13243;50.888;4.724;2022-11-20T17:00:36;9.40;;;3.97;;
25301;SDS011;13243;50.888;4.724;2022-11-20T17:05:39;18.15;;;3.63;;
25301;SDS011;13243;50.888;4.724;2022-11-20T17:10:41;15.77;;;4.15;;
25301;SDS011;13243;50.888;4.724;2022-11-20T17:15:42;14.00;;;4.28;;
25301;SDS011;13243;50.888;4.724;2022-11-20T17:20:50;18.25;;;3.95;;
25301;SDS011;13243;50.888;4.724;2022-11-20T17:25:52;22.38;;;3.60;;
25301;SDS011;13243;50.888;4.724;2022-11-20T17:30:57;11.57;;;2.50;;
25301;SDS011;13243;50.888;4.724;2022-11-20T17:36:04;11.90;;;2.75;;
25301;SDS011;13243;50.888;4.724;2022-11-20T17:41:16;6.60;;;2.60;;
25301;SDS011;13243;50.888;4.724;2022-11-20T17:46:20;13.30;;;1.98;;
25301;SDS011;13243;50.888;4.724;2022-11-20T17:51:28;4.28;;;1.40;;
25301;SDS011;13243;50.888;4.724;2022-11-20T17:56:32;14.52;;;2.88;;
25301;SDS011;13243;50.888;4.724;2022-11-20T18:01:53;12.82;;;1.70;;
25301;SDS011;13243;50.888;4.724;2022-11-20T18:06:59;3.60;;;1.10;;
25301;SDS011;13243;50.888;4.724;2022-11-20T18:12:01;9.25;;;1.90;;
25301;SDS011;13243;50.888;4.724;2022-11-20T18:22:09;6.93;;;1.67;;
25301;SDS011;13243;50.888;4.724;2022-11-20T18:27:14;6.03;;;1.65;;
25301;SDS011;13243;50.888;4.724;2022-11-20T18:32:21;8.38;;;1.50;;
25301;SDS011;13243;50.888;4.724;2022-11-20T18:37:23;8.43;;;2.40;;
25301;SDS011;13243;50.888;4.724;2022-11-20T18:42:25;4.57;;;1.77;;
25301;SDS011;13243;50.888;4.724;2022-11-20T18:47:46;6.28;;;1.75;;
25301;SDS011;13243;50.888;4.724;2022-11-20T18:52:48;8.75;;;2.50;;
25301;SDS011;13243;50.888;4.724;2022-11-20T18:57:50;8.52;;;2.55;;
25301;SDS011;13243;50.888;4.724;2022-11-20T19:02:52;15.93;;;3.80;;
25301;SDS011;13243;50.888;4.724;2022-11-20T19:07:54;16.00;;;4.70;;
25301;SDS011;13243;50.888;4.724;2022-11-20T19:12:56;15.15;;;4.45;;
25301;SDS011;13243;50.888;4.724;2022-11-20T19:17:59;15.88;;;3.72;;
25301;SDS011;13243;50.888;4.724;2022-11-20T19:23:01;11.60;;;3.83;;
25301;SDS011;13243;50.888;4.724;2022-11-20T19:28:03;21.00;;;4.78;;
25301;SDS011;13243;50.888;4.724;2022-11-20T19:33:06;14.50;;;4.30;;
25301;SDS011;13243;50.888;4.724;2022-11-20T19:38:10;19.48;;;4.57;;
25301;SDS011;13243;50.888;4.724;2022-11-20T19:43:11;21.15;;;4.13;;
25301;SDS011;13243;50.888;4.724;2022-11-20T19:48:13;19.42;;;5.60;;
25301;SDS011;13243;50.888;4.724;2022-11-20T19:53:15;20.00;;;4.50;;
25301;SDS011;13243;50.888;4.724;2022-11-20T19:58:19;15.25;;;5.18;;
25301;SDS011;13243;50.888;4.724;2022-11-20T20:03:21;21.10;;;5.97;;
25301;SDS011;13243;50.888;4.724;2022-11-20T20:08:23;15.23;;;5.28;;
25301;SDS011;13243;50.888;4.724;2022-11-20T20:13:25;26.85;;;6.25;;
25301;SDS011;13243;50.888;4.724;2022-11-20T20:18:27;24.98;;;5.70;;
25301;SDS011;13243;50.888;4.724;2022-11-20T20:23:29;25.50;;;4.90;;
25301;SDS011;13243;50.888;4.724;2022-11-20T20:28:31;25.42;;;6.13;;
25301;SDS011;13243;50.888;4.724;2022-11-20T20:33:34;19.30;;;5.13;;
25301;SDS011;13243;50.888;4.724;2022-11-20T20:38:37;23.77;;;5.50;;
25301;SDS011;13243;50.888;4.724;2022-11-20T20:43:40;24.10;;;4.57;;
25301;SDS011;13243;50.888;4.724;2022-11-20T20:49:00;22.13;;;5.27;;
25301;SDS011;13243;50.888;4.724;2022-11-20T20:54:02;26.38;;;5.35;;
25301;SDS011;13243;50.888;4.724;2022-11-20T20:59:05;27.88;;;4.63;;
25301;SDS011;13243;50.888;4.724;2022-11-20T21:04:07;18.33;;;4.60;;
25301;SDS011;13243;50.888;4.724;2022-11-20T21:09:09;18.92;;;4.55;;
25301;SDS011;13243;50.888;4.724;2022-11-20T21:14:11;16.25;;;5.15;;
25301;SDS011;13243;50.888;4.724;2022-11-20T21:19:13;29.38;;;5.15;;
25301;SDS011;13243;50.888;4.724;2022-11-20T21:24:15;19.25;;;4.38;;
25301;SDS011;13243;50.888;4.724;2022-11-20T21:29:17;21.67;;;5.40;;
25301;SDS011;13243;50.888;4.724;2022-11-20T21:34:20;28.27;;;5.63;;
25301;SDS011;13243;50.888;4.724;2022-11-20T21:39:23;18.90;;;3.90;;
25301;SDS011;13243;50.888;4.724;2022-11-20T21:44:25;22.75;;;4.60;;
25301;SDS011;13243;50.888;4.724;2022-11-20T21:49:32;21.95;;;5.40;;
25301;SDS011;13243;50.888;4.724;2022-11-20T21:54:33;23.27;;;5.50;;
25301;SDS011;13243;50.888;4.724;2022-11-20T21:59:36;26.60;;;5.05;;
25301;SDS011;13243;50.888;4.724;2022-11-20T22:04:38;22.70;;;4.97;;
25301;SDS011;13243;50.888;4.724;2022-11-20T22:09:40;24.65;;;4.65;;
25301;SDS011;13243;50.888;4.724;2022-11-20T22:14:42;18.42;;;4.55;;
25301;SDS011;13243;50.888;4.724;2022-11-20T22:19:44;20.05;;;4.82;;
25301;SDS011;13243;50.888;4.724;2022-11-20T22:24:46;15.70;;;4.60;;
25301;SDS011;13243;50.888;4.724;2022-11-20T22:29:48;21.17;;;4.45;;
25301;SDS011;13243;50.888;4.724;2022-11-20T22:34:52;18.17;;;4.85;;
25301;SDS011;13243;50.888;4.724;2022-11-20T22:39:54;13.43;;;3.47;;
25301;SDS011;13243;50.888;4.724;2022-11-20T22:44:56;19.20;;;3.83;;
25301;SDS011;13243;50.888;4.724;2022-11-20T22:49:58;17.17;;;3.95;;
25301;SDS011;13243;50.888;4.724;2022-11-20T22:54:59;15.80;;;3.90;;
25301;SDS011;13243;50.888;4.724;2022-11-20T23:00:02;12.50;;;3.33;;
25301;SDS011;13243;50.888;4.724;2022-11-20T23:05:05;25.73;;;4.13;;
25301;SDS011;13243;50.888;4.724;2022-11-20T23:10:07;18.45;;;4.22;;
25301;SDS011;13243;50.888;4.724;2022-11-20T23:15:09;18.45;;;4.30;;
25301;SDS011;13243;50.888;4.724;2022-11-20T23:20:11;13.27;;;3.53;;
25301;SDS011;13243;50.888;4.724;2022-11-20T23:25:13;15.20;;;3.65;;
25301;SDS011;13243;50.888;4.724;2022-11-20T23:30:15;13.60;;;3.35;;
25301;SDS011;13243;50.888;4.724;2022-11-20T23:35:16;11.40;;;3.42;;
25301;SDS011;13243;50.888;4.724;2022-11-20T23:40:18;14.63;;;4.15;;
25301;SDS011;13243;50.888;4.724;2022-11-20T23:45:20;9.20;;;2.85;;
25301;SDS011;13243;50.888;4.724;2022-11-20T23:50:24;9.27;;;2.33;;
25301;SDS011;13243;50.888;4.724;2022-11-20T23:55:26;1.65;;;1.20;;
